sensor_id;sensor_type;location;lat;lon;timestamp;pressure;altitude;pressure_sealevel;temperature;humidity
14134;BME280;7147;59.364;18.018;2022-10-16T00:00:21;122032.66;;;-143.32;29.33
14134;BME280;7147;59.364;18.018;2022-10-16T00:02:48;122032.66;;;-143.32;29.33
14134;BME280;7147;59.364;18.018;2022-10-16T00:05:15;122032.66;;;-143.32;29.34
14134;BME280;7147;59.364;18.018;2022-10-16T00:07:42;122032.66;;;-143.32;29.33
14134;BME280;7147;59.364;18.018;2022-10-16T00:10:09;122032.66;;;-143.32;29.33
14134;BME280;7147;59.364;18.018;2022-10-16T00:12:37;122032.66;;;-143.32;29.34
14134;BME280;7147;59.364;18.018;2022-10-16T00:15:05;122032.66;;;-143.32;29.34
14134;BME280;7147;59.364;18.018;2022-10-16T00:17:32;122032.66;;;-143.32;29.33
14134;BME280;7147;59.364;18.018;2022-10-16T00:19:59;122032.66;;;-143.32;29.34
14134;BME280;7147;59.364;18.018;2022-10-16T00:22:25;122032.66;;;-143.32;29.34
14134;BME280;7147;59.364;18.018;2022-10-16T00:24:52;122032.66;;;-143.32;29.34
14134;BME280;7147;59.364;18.018;2022-10-16T00:27:19;122032.66;;;-143.32;29.33
14134;BME280;7147;59.364;18.018;2022-10-16T00:29:50;122032.66;;;-143.32;29.33
14134;BME280;7147;59.364;18.018;2022-10-16T00:32:18;122032.66;;;-143.32;29.33
14134;BME280;7147;59.364;18.018;2022-10-16T00:34:45;122032.66;;;-143.32;29.34
14134;BME280;7147;59.364;18.018;2022-10-16T00:37:12;122032.66;;;-143.32;29.34
14134;BME280;7147;59.364;18.018;2022-10-16T00:39:39;122032.66;;;-143.32;29.33
14134;BME280;7147;59.364;18.018;2022-10-16T00:42:05;122032.66;;;-143.32;29.34
14134;BME280;7147;59.364;18.018;2022-10-16T00:44:48;122032.66;;;-143.32;29.34
14134;BME280;7147;59.364;18.018;2022-10-16T00:47:22;122032.66;;;-143.32;29.34
14134;BME280;7147;59.364;18.018;2022-10-16T00:49:55;122032.66;;;-143.32;29.33
14134;BME280;7147;59.364;18.018;2022-10-16T00:52:22;122032.66;;;-143.32;29.33
14134;BME280;7147;59.364;18.018;2022-10-16T00:54:49;122032.66;;;-143.32;29.34
14134;BME280;7147;59.364;18.018;2022-10-16T00:57:17;122032.66;;;-143.32;29.33
14134;BME280;7147;59.364;18.018;2022-10-16T00:59:43;122032.66;;;-143.32;29.34
14134;BME280;7147;59.364;18.018;2022-10-16T01:02:12;122032.66;;;-143.32;29.34
14134;BME280;7147;59.364;18.018;2022-10-16T01:04:42;122032.66;;;-143.32;29.33
14134;BME280;7147;59.364;18.018;2022-10-16T01:07:15;122032.66;;;-143.32;29.33
14134;BME280;7147;59.364;18.018;2022-10-16T01:09:50;122032.66;;;-143.32;29.34
14134;BME280;7147;59.364;18.018;2022-10-16T01:12:24;122032.66;;;-143.32;29.33
14134;BME280;7147;59.364;18.018;2022-10-16T01:14:58;122032.66;;;-143.32;29.33
14134;BME280;7147;59.364;18.018;2022-10-16T01:17:28;122032.66;;;-143.32;29.33
14134;BME280;7147;59.364;18.018;2022-10-16T01:20:06;122032.66;;;-143.32;29.33
14134;BME280;7147;59.364;18.018;2022-10-16T01:22:39;122032.66;;;-143.32;29.33
14134;BME280;7147;59.364;18.018;2022-10-16T01:25:12;122032.66;;;-143.32;29.33
14134;BME280;7147;59.364;18.018;2022-10-16T01:27:45;122032.66;;;-143.32;29.33
14134;BME280;7147;59.364;18.018;2022-10-16T01:30:17;122032.66;;;-143.32;29.33
14134;BME280;7147;59.364;18.018;2022-10-16T01:32:48;122032.66;;;-143.32;29.34
14134;BME280;7147;59.364;18.018;2022-10-16T01:35:18;122032.66;;;-143.32;29.34
14134;BME280;7147;59.364;18.018;2022-10-16T01:37:51;122032.66;;;-143.32;29.33
14134;BME280;7147;59.364;18.018;2022-10-16T01:40:20;122032.66;;;-143.32;29.33
14134;BME280;7147;59.364;18.018;2022-10-16T01:42:53;122032.66;;;-143.32;29.33
14134;BME280;7147;59.364;18.018;2022-10-16T01:45:22;122032.66;;;-143.32;29.33
14134;BME280;7147;59.364;18.018;2022-10-16T01:47:49;122032.66;;;-143.32;29.33
14134;BME280;7147;59.364;18.018;2022-10-16T01:50:19;122032.66;;;-143.32;29.34
14134;BME280;7147;59.364;18.018;2022-10-16T01:52:50;122032.66;;;-143.32;29.34
14134;BME280;7147;59.364;18.018;2022-10-16T01:55:22;122032.66;;;-143.32;29.34
14134;BME280;7147;59.364;18.018;2022-10-16T01:57:54;122032.66;;;-143.32;29.33
14134;BME280;7147;59.364;18.018;2022-10-16T02:00:22;122032.66;;;-143.32;29.34
14134;BME280;7147;59.364;18.018;2022-10-16T02:02:52;122032.66;;;-143.32;29.33
14134;BME280;7147;59.364;18.018;2022-10-16T02:05:23;122032.66;;;-143.32;29.33
14134;BME280;7147;59.364;18.018;2022-10-16T02:07:51;122032.66;;;-143.32;29.34
14134;BME280;7147;59.364;18.018;2022-10-16T02:10:18;122032.66;;;-143.32;29.33
14134;BME280;7147;59.364;18.018;2022-10-16T02:12:49;122032.66;;;-143.32;29.33
14134;BME280;7147;59.364;18.018;2022-10-16T02:15:18;122032.66;;;-143.32;29.33
14134;BME280;7147;59.364;18.018;2022-10-16T02:17:45;122032.66;;;-143.32;29.33
14134;BME280;7147;59.364;18.018;2022-10-16T02:20:12;122032.66;;;-143.32;29.33
14134;BME280;7147;59.364;18.018;2022-10-16T02:22:41;122032.66;;;-143.32;29.33
14134;BME280;7147;59.364;18.018;2022-10-16T02:25:11;122032.66;;;-143.32;29.33
14134;BME280;7147;59.364;18.018;2022-10-16T02:27:47;122032.66;;;-143.32;29.33
14134;BME280;7147;59.364;18.018;2022-10-16T02:30:21;122032.66;;;-143.32;29.34
14134;BME280;7147;59.364;18.018;2022-10-16T02:32:52;122032.66;;;-143.32;29.34
14134;BME280;7147;59.364;18.018;2022-10-16T02:35:21;122032.66;;;-143.32;29.34
14134;BME280;7147;59.364;18.018;2022-10-16T02:37:50;122032.66;;;-143.32;29.34
14134;BME280;7147;59.364;18.018;2022-10-16T02:40:19;122032.66;;;-143.32;29.34
14134;BME280;7147;59.364;18.018;2022-10-16T02:42:50;122032.66;;;-143.32;29.34
14134;BME280;7147;59.364;18.018;2022-10-16T02:45:19;122032.66;;;-143.32;29.34
14134;BME280;7147;59.364;18.018;2022-10-16T02:47:46;122032.66;;;-143.32;29.33
14134;BME280;7147;59.364;18.018;2022-10-16T02:50:12;122032.66;;;-143.32;29.34
14134;BME280;7147;59.364;18.018;2022-10-16T02:52:39;122032.66;;;-143.32;29.34
14134;BME280;7147;59.364;18.018;2022-10-16T02:55:07;122032.66;;;-143.32;29.34
14134;BME280;7147;59.364;18.018;2022-10-16T02:57:34;122032.66;;;-143.32;29.33
14134;BME280;7147;59.364;18.018;2022-10-16T03:00:03;122032.66;;;-143.32;29.34
14134;BME280;7147;59.364;18.018;2022-10-16T03:02:31;122032.66;;;-143.32;29.34
14134;BME280;7147;59.364;18.018;2022-10-16T03:04:58;122032.66;;;-143.32;29.33
14134;BME280;7147;59.364;18.018;2022-10-16T03:07:25;122032.66;;;-143.32;29.33
14134;BME280;7147;59.364;18.018;2022-10-16T03:09:51;122032.66;;;-143.32;29.33
14134;BME280;7147;59.364;18.018;2022-10-16T03:12:20;122032.66;;;-143.32;29.34
14134;BME280;7147;59.364;18.018;2022-10-16T03:14:47;122032.66;;;-143.32;29.34
14134;BME280;7147;59.364;18.018;2022-10-16T03:17:13;122032.66;;;-143.32;29.34
14134;BME280;7147;59.364;18.018;2022-10-16T03:19:43;122032.66;;;-143.32;29.33
14134;BME280;7147;59.364;18.018;2022-10-16T03:22:10;122032.66;;;-143.32;29.34
14134;BME280;7147;59.364;18.018;2022-10-16T03:24:37;122032.66;;;-143.32;29.33
14134;BME280;7147;59.364;18.018;2022-10-16T03:27:04;122032.66;;;-143.32;29.34
14134;BME280;7147;59.364;18.018;2022-10-16T03:29:31;122032.66;;;-143.32;29.33
14134;BME280;7147;59.364;18.018;2022-10-16T03:31:58;122032.66;;;-143.32;29.34
14134;BME280;7147;59.364;18.018;2022-10-16T03:34:25;122032.66;;;-143.32;29.34
14134;BME280;7147;59.364;18.018;2022-10-16T03:36:53;122032.66;;;-143.32;29.34
14134;BME280;7147;59.364;18.018;2022-10-16T03:39:20;122032.66;;;-143.32;29.34
14134;BME280;7147;59.364;18.018;2022-10-16T03:41:47;122032.66;;;-143.32;29.34
14134;BME280;7147;59.364;18.018;2022-10-16T03:44:14;122032.66;;;-143.32;29.33
14134;BME280;7147;59.364;18.018;2022-10-16T03:46:41;122032.66;;;-143.32;29.34
14134;BME280;7147;59.364;18.018;2022-10-16T03:49:07;122032.66;;;-143.32;29.34
14134;BME280;7147;59.364;18.018;2022-10-16T03:51:34;122032.66;;;-143.32;29.34
14134;BME280;7147;59.364;18.018;2022-10-16T03:54:02;122032.66;;;-143.32;29.34
14134;BME280;7147;59.364;18.018;2022-10-16T03:56:29;122032.66;;;-143.32;29.34
14134;BME280;7147;59.364;18.018;2022-10-16T03:58:56;122032.66;;;-143.32;29.33
14134;BME280;7147;59.364;18.018;2022-10-16T04:01:23;122032.66;;;-143.32;29.33
14134;BME280;7147;59.364;18.018;2022-10-16T04:03:49;122032.66;;;-143.32;29.34
14134;BME280;7147;59.364;18.018;2022-10-16T04:06:16;122032.66;;;-143.32;29.34
14134;BME280;7147;59.364;18.018;2022-10-16T04:08:43;122032.66;;;-143.32;29.34
14134;BME280;7147;59.364;18.018;2022-10-16T04:11:11;122032.66;;;-143.32;29.33
14134;BME280;7147;59.364;18.018;2022-10-16T04:13:38;122032.66;;;-143.32;29.34
14134;BME280;7147;59.364;18.018;2022-10-16T04:16:05;122032.66;;;-143.32;29.34
14134;BME280;7147;59.364;18.018;2022-10-16T04:18:32;122032.66;;;-143.32;29.34
14134;BME280;7147;59.364;18.018;2022-10-16T04:21:02;122032.66;;;-143.32;29.34
14134;BME280;7147;59.364;18.018;2022-10-16T04:23:31;122032.66;;;-143.32;29.34
14134;BME280;7147;59.364;18.018;2022-10-16T04:25:59;122032.66;;;-143.32;29.34
14134;BME280;7147;59.364;18.018;2022-10-16T04:28:30;122032.66;;;-143.32;29.34
14134;BME280;7147;59.364;18.018;2022-10-16T04:30:57;122032.66;;;-143.32;29.34
14134;BME280;7147;59.364;18.018;2022-10-16T04:33:24;122032.66;;;-143.32;29.34
14134;BME280;7147;59.364;18.018;2022-10-16T04:35:56;122032.66;;;-143.32;29.34
14134;BME280;7147;59.364;18.018;2022-10-16T04:38:24;122032.66;;;-143.32;29.34
14134;BME280;7147;59.364;18.018;2022-10-16T04:40:51;122032.66;;;-143.32;29.34
14134;BME280;7147;59.364;18.018;2022-10-16T04:43:17;122032.66;;;-143.32;29.34
14134;BME280;7147;59.364;18.018;2022-10-16T04:45:46;122032.66;;;-143.32;29.34
14134;BME280;7147;59.364;18.018;2022-10-16T04:48:12;122032.66;;;-143.32;29.34
14134;BME280;7147;59.364;18.018;2022-10-16T04:50:39;122032.66;;;-143.32;29.34
14134;BME280;7147;59.364;18.018;2022-10-16T04:53:07;122032.66;;;-143.32;29.34
14134;BME280;7147;59.364;18.018;2022-10-16T04:55:34;122032.66;;;-143.32;29.34
14134;BME280;7147;59.364;18.018;2022-10-16T04:58:01;122032.66;;;-143.32;29.34
14134;BME280;7147;59.364;18.018;2022-10-16T05:00:28;122032.66;;;-143.32;29.33
14134;BME280;7147;59.364;18.018;2022-10-16T05:02:56;122032.66;;;-143.32;29.34
14134;BME280;7147;59.364;18.018;2022-10-16T05:05:25;122032.66;;;-143.32;29.34
14134;BME280;7147;59.364;18.018;2022-10-16T05:07:51;122032.66;;;-143.32;29.34
14134;BME280;7147;59.364;18.018;2022-10-16T05:10:19;122032.66;;;-143.32;29.34
14134;BME280;7147;59.364;18.018;2022-10-16T05:12:46;122032.66;;;-143.32;29.34
14134;BME280;7147;59.364;18.018;2022-10-16T05:15:13;122032.66;;;-143.32;29.34
14134;BME280;7147;59.364;18.018;2022-10-16T05:17:40;122032.66;;;-143.32;29.34
14134;BME280;7147;59.364;18.018;2022-10-16T05:20:09;122032.66;;;-143.32;29.34
14134;BME280;7147;59.364;18.018;2022-10-16T05:22:35;122032.66;;;-143.32;29.34
14134;BME280;7147;59.364;18.018;2022-10-16T05:25:03;122032.66;;;-143.32;29.34
14134;BME280;7147;59.364;18.018;2022-10-16T05:27:30;122032.66;;;-143.32;29.34
14134;BME280;7147;59.364;18.018;2022-10-16T05:29:56;122032.66;;;-143.32;29.34
14134;BME280;7147;59.364;18.018;2022-10-16T05:32:23;122032.66;;;-143.32;29.34
14134;BME280;7147;59.364;18.018;2022-10-16T05:34:50;122032.66;;;-143.32;29.34
14134;BME280;7147;59.364;18.018;2022-10-16T05:37:18;122032.66;;;-143.32;29.34
14134;BME280;7147;59.364;18.018;2022-10-16T05:39:45;122032.66;;;-143.32;29.34
14134;BME280;7147;59.364;18.018;2022-10-16T05:42:12;122032.66;;;-143.32;29.34
14134;BME280;7147;59.364;18.018;2022-10-16T05:44:39;122032.66;;;-143.32;29.34
14134;BME280;7147;59.364;18.018;2022-10-16T05:47:06;122032.66;;;-143.32;29.34
14134;BME280;7147;59.364;18.018;2022-10-16T05:49:33;122032.66;;;-143.32;29.34
14134;BME280;7147;59.364;18.018;2022-10-16T05:52:00;122032.66;;;-143.32;29.34
14134;BME280;7147;59.364;18.018;2022-10-16T05:54:28;122032.66;;;-143.32;29.34
14134;BME280;7147;59.364;18.018;2022-10-16T05:56:55;122032.66;;;-143.32;29.33
14134;BME280;7147;59.364;18.018;2022-10-16T05:59:21;122032.66;;;-143.32;29.34
14134;BME280;7147;59.364;18.018;2022-10-16T06:01:48;122032.66;;;-143.32;29.34
14134;BME280;7147;59.364;18.018;2022-10-16T06:04:15;122032.66;;;-143.32;29.34
14134;BME280;7147;59.364;18.018;2022-10-16T06:06:43;122032.66;;;-143.32;29.34
14134;BME280;7147;59.364;18.018;2022-10-16T06:09:10;122032.66;;;-143.32;29.34
14134;BME280;7147;59.364;18.018;2022-10-16T06:11:38;122032.66;;;-143.32;29.34
14134;BME280;7147;59.364;18.018;2022-10-16T06:14:05;122032.66;;;-143.32;29.34
14134;BME280;7147;59.364;18.018;2022-10-16T06:16:33;122032.66;;;-143.32;29.34
14134;BME280;7147;59.364;18.018;2022-10-16T06:19:00;122032.66;;;-143.32;29.34
14134;BME280;7147;59.364;18.018;2022-10-16T06:21:28;122032.66;;;-143.32;29.34
14134;BME280;7147;59.364;18.018;2022-10-16T06:23:55;122032.66;;;-143.32;29.34
14134;BME280;7147;59.364;18.018;2022-10-16T06:26:24;122032.66;;;-143.32;29.34
14134;BME280;7147;59.364;18.018;2022-10-16T06:28:53;122032.66;;;-143.32;29.34
14134;BME280;7147;59.364;18.018;2022-10-16T06:31:20;122032.66;;;-143.32;29.34
14134;BME280;7147;59.364;18.018;2022-10-16T06:33:50;122032.66;;;-143.32;29.34
14134;BME280;7147;59.364;18.018;2022-10-16T06:36:18;122032.66;;;-143.32;29.34
14134;BME280;7147;59.364;18.018;2022-10-16T06:38:44;122032.66;;;-143.32;29.34
14134;BME280;7147;59.364;18.018;2022-10-16T06:41:13;122032.66;;;-143.32;29.34
14134;BME280;7147;59.364;18.018;2022-10-16T06:43:40;122032.66;;;-143.32;29.33
14134;BME280;7147;59.364;18.018;2022-10-16T06:46:10;122032.66;;;-143.32;29.33
14134;BME280;7147;59.364;18.018;2022-10-16T06:48:38;122032.66;;;-143.32;29.33
14134;BME280;7147;59.364;18.018;2022-10-16T06:51:08;122032.66;;;-143.32;29.34
14134;BME280;7147;59.364;18.018;2022-10-16T06:53:36;122032.66;;;-143.32;29.34
14134;BME280;7147;59.364;18.018;2022-10-16T06:56:07;122032.66;;;-143.32;29.33
14134;BME280;7147;59.364;18.018;2022-10-16T06:58:34;122032.66;;;-143.32;29.33
14134;BME280;7147;59.364;18.018;2022-10-16T07:01:01;122032.66;;;-143.32;29.34
14134;BME280;7147;59.364;18.018;2022-10-16T07:03:29;122032.66;;;-143.32;29.33
14134;BME280;7147;59.364;18.018;2022-10-16T07:05:56;122032.66;;;-143.32;29.34
14134;BME280;7147;59.364;18.018;2022-10-16T07:08:23;122032.66;;;-143.32;29.33
14134;BME280;7147;59.364;18.018;2022-10-16T07:10:58;122032.66;;;-143.32;29.34
14134;BME280;7147;59.364;18.018;2022-10-16T07:13:25;122032.66;;;-143.32;29.33
14134;BME280;7147;59.364;18.018;2022-10-16T07:15:51;122032.66;;;-143.32;29.33
14134;BME280;7147;59.364;18.018;2022-10-16T07:18:18;122032.66;;;-143.32;29.33
14134;BME280;7147;59.364;18.018;2022-10-16T07:20:47;122032.66;;;-143.32;29.34
14134;BME280;7147;59.364;18.018;2022-10-16T07:23:13;122032.66;;;-143.32;29.34
14134;BME280;7147;59.364;18.018;2022-10-16T07:25:40;122032.66;;;-143.32;29.34
14134;BME280;7147;59.364;18.018;2022-10-16T07:28:07;122032.66;;;-143.32;29.34
14134;BME280;7147;59.364;18.018;2022-10-16T07:30:35;122032.66;;;-143.32;29.33
14134;BME280;7147;59.364;18.018;2022-10-16T07:33:02;122032.66;;;-143.32;29.34
14134;BME280;7147;59.364;18.018;2022-10-16T07:35:29;122032.66;;;-143.32;29.34
14134;BME280;7147;59.364;18.018;2022-10-16T07:37:57;122032.66;;;-143.32;29.33
14134;BME280;7147;59.364;18.018;2022-10-16T07:40:24;122032.66;;;-143.32;29.33
14134;BME280;7147;59.364;18.018;2022-10-16T07:42:52;122032.66;;;-143.32;29.34
14134;BME280;7147;59.364;18.018;2022-10-16T07:45:19;122032.66;;;-143.32;29.34
14134;BME280;7147;59.364;18.018;2022-10-16T07:47:46;122032.66;;;-143.32;29.33
14134;BME280;7147;59.364;18.018;2022-10-16T07:50:13;122032.66;;;-143.32;29.34
14134;BME280;7147;59.364;18.018;2022-10-16T07:52:39;122032.66;;;-143.32;29.34
14134;BME280;7147;59.364;18.018;2022-10-16T07:55:08;122032.66;;;-143.32;29.34
14134;BME280;7147;59.364;18.018;2022-10-16T07:57:35;122032.66;;;-143.32;29.34
14134;BME280;7147;59.364;18.018;2022-10-16T08:00:03;122032.66;;;-143.32;29.33
14134;BME280;7147;59.364;18.018;2022-10-16T08:02:31;122032.66;;;-143.32;29.33
14134;BME280;7147;59.364;18.018;2022-10-16T08:04:58;122032.66;;;-143.32;29.34
14134;BME280;7147;59.364;18.018;2022-10-16T08:07:25;122032.66;;;-143.32;29.34
14134;BME280;7147;59.364;18.018;2022-10-16T08:09:52;122032.66;;;-143.32;29.34
14134;BME280;7147;59.364;18.018;2022-10-16T08:12:20;122032.66;;;-143.32;29.33
14134;BME280;7147;59.364;18.018;2022-10-16T08:14:46;122032.66;;;-143.32;29.34
14134;BME280;7147;59.364;18.018;2022-10-16T08:17:14;122032.66;;;-143.32;29.34
14134;BME280;7147;59.364;18.018;2022-10-16T08:19:44;122032.66;;;-143.32;29.33
14134;BME280;7147;59.364;18.018;2022-10-16T08:22:11;122032.66;;;-143.32;29.33
14134;BME280;7147;59.364;18.018;2022-10-16T08:24:38;122032.66;;;-143.32;29.33
14134;BME280;7147;59.364;18.018;2022-10-16T08:27:05;122032.66;;;-143.32;29.34
14134;BME280;7147;59.364;18.018;2022-10-16T08:29:33;122032.66;;;-143.32;29.34
14134;BME280;7147;59.364;18.018;2022-10-16T08:32:00;122032.66;;;-143.32;29.34
14134;BME280;7147;59.364;18.018;2022-10-16T08:34:27;122032.66;;;-143.32;29.34
14134;BME280;7147;59.364;18.018;2022-10-16T08:36:54;122032.66;;;-143.32;29.34
14134;BME280;7147;59.364;18.018;2022-10-16T08:39:20;122032.66;;;-143.32;29.33
14134;BME280;7147;59.364;18.018;2022-10-16T08:42:05;122032.66;;;-143.32;29.34
14134;BME280;7147;59.364;18.018;2022-10-16T08:44:55;122032.66;;;-143.32;29.34
14134;BME280;7147;59.364;18.018;2022-10-16T08:47:35;122032.66;;;-143.32;29.34
14134;BME280;7147;59.364;18.018;2022-10-16T08:50:10;122032.66;;;-143.32;29.34
14134;BME280;7147;59.364;18.018;2022-10-16T08:52:40;122032.66;;;-143.32;29.34
14134;BME280;7147;59.364;18.018;2022-10-16T08:55:28;122032.66;;;-143.32;29.34
14134;BME280;7147;59.364;18.018;2022-10-16T08:57:57;122032.66;;;-143.32;29.34
14134;BME280;7147;59.364;18.018;2022-10-16T09:00:26;122032.66;;;-143.32;29.34
14134;BME280;7147;59.364;18.018;2022-10-16T09:03:00;122032.66;;;-143.32;29.34
14134;BME280;7147;59.364;18.018;2022-10-16T09:05:52;122032.66;;;-143.32;29.34
14134;BME280;7147;59.364;18.018;2022-10-16T09:08:29;122032.66;;;-143.32;29.34
14134;BME280;7147;59.364;18.018;2022-10-16T09:11:05;122032.66;;;-143.32;29.34
14134;BME280;7147;59.364;18.018;2022-10-16T09:13:43;122032.66;;;-143.32;29.34
14134;BME280;7147;59.364;18.018;2022-10-16T09:16:19;122032.66;;;-143.32;29.34
14134;BME280;7147;59.364;18.018;2022-10-16T09:18:56;122032.66;;;-143.32;29.34
14134;BME280;7147;59.364;18.018;2022-10-16T09:21:28;122032.66;;;-143.32;29.34
14134;BME280;7147;59.364;18.018;2022-10-16T09:23:58;116047.72;;;-143.32;29.34
14134;BME280;7147;59.364;18.018;2022-10-16T09:26:26;101985.03;;;-143.32;29.34
14134;BME280;7147;59.364;18.018;2022-10-16T09:28:53;98044.16;;;-143.32;29.34
14134;BME280;7147;59.364;18.018;2022-10-16T09:31:22;96025.81;;;-143.32;29.34
14134;BME280;7147;59.364;18.018;2022-10-16T09:33:53;94943.22;;;-143.32;29.34
14134;BME280;7147;59.364;18.018;2022-10-16T09:36:21;94175.28;;;-143.32;29.34
14134;BME280;7147;59.364;18.018;2022-10-16T09:38:50;93354.78;;;-143.32;29.34
14134;BME280;7147;59.364;18.018;2022-10-16T09:41:27;92555.56;;;-143.32;29.36
14134;BME280;7147;59.364;18.018;2022-10-16T09:43:55;91975.78;;;-143.32;29.34
14134;BME280;7147;59.364;18.018;2022-10-16T09:46:29;91360.25;;;-143.32;29.34
14134;BME280;7147;59.364;18.018;2022-10-16T09:48:58;91195.84;;;-143.32;29.35
14134;BME280;7147;59.364;18.018;2022-10-16T09:51:28;91303.31;;;-143.32;29.35
14134;BME280;7147;59.364;18.018;2022-10-16T09:53:57;91568.91;;;-143.32;29.36
14134;BME280;7147;59.364;18.018;2022-10-16T09:56:26;92317.31;;;-143.32;29.35
14134;BME280;7147;59.364;18.018;2022-10-16T09:58:55;93635.28;;;-143.32;29.36
14134;BME280;7147;59.364;18.018;2022-10-16T10:01:25;96182.00;;;-143.32;29.36
14134;BME280;7147;59.364;18.018;2022-10-16T10:03:57;98498.25;;;-143.32;29.36
14134;BME280;7147;59.364;18.018;2022-10-16T10:06:29;100966.09;;;-143.32;29.36
14134;BME280;7147;59.364;18.018;2022-10-16T10:09:02;105771.59;;;-143.32;29.37
14134;BME280;7147;59.364;18.018;2022-10-16T10:11:41;111321.34;;;-143.32;29.36
14134;BME280;7147;59.364;18.018;2022-10-16T10:14:20;117678.38;;;-143.32;29.37
14134;BME280;7147;59.364;18.018;2022-10-16T10:16:49;122032.66;;;-143.32;29.38
14134;BME280;7147;59.364;18.018;2022-10-16T10:19:20;122032.66;;;-143.32;29.38
14134;BME280;7147;59.364;18.018;2022-10-16T10:21:48;122032.66;;;-143.32;29.38
14134;BME280;7147;59.364;18.018;2022-10-16T10:24:17;122032.66;;;-143.32;29.39
14134;BME280;7147;59.364;18.018;2022-10-16T10:26:49;122032.66;;;-143.32;29.40
14134;BME280;7147;59.364;18.018;2022-10-16T10:29:27;122032.66;;;-143.32;29.40
14134;BME280;7147;59.364;18.018;2022-10-16T10:32:08;122032.66;;;-143.32;29.39
14134;BME280;7147;59.364;18.018;2022-10-16T10:34:57;122032.66;;;-143.32;29.41
14134;BME280;7147;59.364;18.018;2022-10-16T10:37:36;122032.66;;;-143.32;29.41
14134;BME280;7147;59.364;18.018;2022-10-16T10:40:16;122032.66;;;-143.32;29.41
14134;BME280;7147;59.364;18.018;2022-10-16T10:42:54;122032.66;;;-143.32;29.43
14134;BME280;7147;59.364;18.018;2022-10-16T10:45:26;122032.66;;;-143.32;29.43
14134;BME280;7147;59.364;18.018;2022-10-16T10:48:10;122032.66;;;-143.32;29.43
14134;BME280;7147;59.364;18.018;2022-10-16T10:50:43;122032.66;;;-143.32;29.43
14134;BME280;7147;59.364;18.018;2022-10-16T10:53:21;122032.66;;;-143.32;29.44
14134;BME280;7147;59.364;18.018;2022-10-16T10:56:00;122032.66;;;-143.32;29.44
14134;BME280;7147;59.364;18.018;2022-10-16T10:58:55;122032.66;;;-143.32;29.45
14134;BME280;7147;59.364;18.018;2022-10-16T11:01:31;122032.66;;;-143.32;29.48
14134;BME280;7147;59.364;18.018;2022-10-16T11:06:55;122032.66;;;-143.32;29.50
14134;BME280;7147;59.364;18.018;2022-10-16T11:09:24;122032.66;;;-143.32;29.49
14134;BME280;7147;59.364;18.018;2022-10-16T11:11:54;122032.66;;;-143.32;29.50
14134;BME280;7147;59.364;18.018;2022-10-16T11:14:27;122032.66;;;-143.32;29.53
14134;BME280;7147;59.364;18.018;2022-10-16T11:16:59;122032.66;;;-143.32;29.53
14134;BME280;7147;59.364;18.018;2022-10-16T11:19:36;122032.66;;;-143.32;29.55
14134;BME280;7147;59.364;18.018;2022-10-16T11:22:12;122032.66;;;-143.32;29.55
14134;BME280;7147;59.364;18.018;2022-10-16T11:24:45;122032.66;;;-143.32;29.57
14134;BME280;7147;59.364;18.018;2022-10-16T11:27:17;122032.66;;;-143.32;29.56
14134;BME280;7147;59.364;18.018;2022-10-16T11:29:52;122032.66;;;-143.32;29.58
14134;BME280;7147;59.364;18.018;2022-10-16T11:32:23;122032.66;;;-143.32;29.59
14134;BME280;7147;59.364;18.018;2022-10-16T11:34:58;122032.66;;;-143.32;29.61
14134;BME280;7147;59.364;18.018;2022-10-16T11:37:31;122032.66;;;-143.32;29.62
14134;BME280;7147;59.364;18.018;2022-10-16T11:40:05;122032.66;;;-143.32;29.63
14134;BME280;7147;59.364;18.018;2022-10-16T11:42:41;121758.34;;;-143.32;29.63
14134;BME280;7147;59.364;18.018;2022-10-16T11:45:21;100695.56;;;-143.32;29.63
14134;BME280;7147;59.364;18.018;2022-10-16T11:47:57;93930.59;;;-143.32;29.66
14134;BME280;7147;59.364;18.018;2022-10-16T11:50:33;87399.84;;;-143.32;29.65
14134;BME280;7147;59.364;18.018;2022-10-16T11:53:08;81589.69;;;-143.32;29.66
14134;BME280;7147;59.364;18.018;2022-10-16T11:55:40;94430.53;;;-143.32;29.66
14134;BME280;7147;59.364;18.018;2022-10-16T11:58:15;89906.16;;;-143.32;29.67
14134;BME280;7147;59.364;18.018;2022-10-16T12:00:47;85808.56;;;-143.32;29.67
14134;BME280;7147;59.364;18.018;2022-10-16T12:03:22;80274.19;;;-143.32;29.67
14134;BME280;7147;59.364;18.018;2022-10-16T12:05:57;74035.59;;;-143.32;29.67
14134;BME280;7147;59.364;18.018;2022-10-16T12:08:30;69179.78;;;-143.32;29.68
14134;BME280;7147;59.364;18.018;2022-10-16T12:11:07;62754.41;;;-143.32;29.69
14134;BME280;7147;59.364;18.018;2022-10-16T12:13:36;58960.53;;;-143.32;29.69
14134;BME280;7147;59.364;18.018;2022-10-16T12:16:20;54486.88;;;-143.32;29.69
14134;BME280;7147;59.364;18.018;2022-10-16T12:18:48;50035.78;;;-143.32;29.70
14134;BME280;7147;59.364;18.018;2022-10-16T12:21:16;41959.19;;;-143.32;29.71
14134;BME280;7147;59.364;18.018;2022-10-16T12:23:50;32379.00;;;-143.32;29.71
14134;BME280;7147;59.364;18.018;2022-10-16T12:26:25;20690.97;;;-143.32;29.71
14134;BME280;7147;59.364;18.018;2022-10-16T12:28:53;14378.13;;;-143.32;29.71
14134;BME280;7147;59.364;18.018;2022-10-16T12:31:21;12567.53;;;-143.32;29.71
14134;BME280;7147;59.364;18.018;2022-10-16T12:33:58;10646.81;;;-143.32;29.72
14134;BME280;7147;59.364;18.018;2022-10-16T12:36:28;8657.28;;;-143.32;29.72
14134;BME280;7147;59.364;18.018;2022-10-16T12:39:03;7014.28;;;-143.32;29.72
14134;BME280;7147;59.364;18.018;2022-10-16T12:41:31;6578.47;;;-143.32;29.72
14134;BME280;7147;59.364;18.018;2022-10-16T12:44:00;5731.72;;;-143.32;29.72
14134;BME280;7147;59.364;18.018;2022-10-16T12:46:38;6971.09;;;-143.32;29.72